sensor_id;sensor_type;location;lat;lon;timestamp;pressure;altitude;pressure_sealevel;temperature;humidity
61109;BME280;46995;55.740;37.402;2022-11-20T00:03:33;99515.50;;;-1.22;83.76
61109;BME280;46995;55.740;37.402;2022-11-20T00:06:03;99531.59;;;-1.14;83.59
61109;BME280;46995;55.740;37.402;2022-11-20T00:08:29;99530.88;;;-1.17;83.13
61109;BME280;46995;55.740;37.402;2022-11-20T00:10:55;99524.97;;;-1.21;82.92
61109;BME280;46995;55.740;37.402;2022-11-20T00:13:20;99514.19;;;-1.32;83.38
61109;BME280;46995;55.740;37.402;2022-11-20T00:15:46;99512.47;;;-1.33;83.40
61109;BME280;46995;55.740;37.402;2022-11-20T00:18:12;99509.91;;;-1.33;82.78
61109;BME280;46995;55.740;37.402;2022-11-20T00:20:37;99519.13;;;-1.26;82.83
61109;BME280;46995;55.740;37.402;2022-11-20T00:23:04;99528.47;;;-1.22;82.37
61109;BME280;46995;55.740;37.402;2022-11-20T00:25:34;99531.16;;;-1.25;82.09
61109;BME280;46995;55.740;37.402;2022-11-20T00:28:00;99517.00;;;-1.38;82.54
61109;BME280;46995;55.740;37.402;2022-11-20T00:30:26;99539.00;;;-1.26;82.30
61109;BME280;46995;55.740;37.402;2022-11-20T00:32:52;99517.78;;;-1.36;82.40
61109;BME280;46995;55.740;37.402;2022-11-20T00:35:18;99514.28;;;-1.35;82.52
61109;BME280;46995;55.740;37.402;2022-11-20T00:37:43;99513.38;;;-1.34;82.38
61109;BME280;46995;55.740;37.402;2022-11-20T00:40:09;99516.78;;;-1.32;82.41
61109;BME280;46995;55.740;37.402;2022-11-20T00:42:35;99522.47;;;-1.24;82.60
61109;BME280;46995;55.740;37.402;2022-11-20T00:45:01;99532.75;;;-1.21;82.30
61109;BME280;46995;55.740;37.402;2022-11-20T00:47:27;99523.34;;;-1.23;81.99
61109;BME280;46995;55.740;37.402;2022-11-20T00:49:53;99513.19;;;-1.30;81.89
61109;BME280;46995;55.740;37.402;2022-11-20T00:52:18;99514.03;;;-1.29;82.11
61109;BME280;46995;55.740;37.402;2022-11-20T00:54:44;99515.97;;;-1.34;82.40
61109;BME280;46995;55.740;37.402;2022-11-20T00:57:10;99509.09;;;-1.35;81.95
61109;BME280;46995;55.740;37.402;2022-11-20T00:59:35;99528.41;;;-1.20;82.37
61109;BME280;46995;55.740;37.402;2022-11-20T01:02:01;99520.88;;;-1.26;81.96
61109;BME280;46995;55.740;37.402;2022-11-20T01:04:27;99522.47;;;-1.24;81.76
61109;BME280;46995;55.740;37.402;2022-11-20T01:06:52;99513.16;;;-1.28;81.67
61109;BME280;46995;55.740;37.402;2022-11-20T01:09:18;99531.94;;;-1.23;81.72
61109;BME280;46995;55.740;37.402;2022-11-20T01:11:44;99532.84;;;-1.24;81.26
61109;BME280;46995;55.740;37.402;2022-11-20T01:14:16;99515.88;;;-1.31;81.76
61109;BME280;46995;55.740;37.402;2022-11-20T01:16:44;99514.84;;;-1.27;81.49
61109;BME280;46995;55.740;37.402;2022-11-20T01:19:13;99534.41;;;-1.20;81.06
61109;BME280;46995;55.740;37.402;2022-11-20T01:21:41;99517.44;;;-1.27;80.62
61109;BME280;46995;55.740;37.402;2022-11-20T01:24:10;99531.28;;;-1.28;80.99
61109;BME280;46995;55.740;37.402;2022-11-20T01:26:38;99527.00;;;-1.29;81.04
61109;BME280;46995;55.740;37.402;2022-11-20T01:29:05;99507.53;;;-1.39;81.26
61109;BME280;46995;55.740;37.402;2022-11-20T01:31:33;99532.91;;;-1.25;81.21
61109;BME280;46995;55.740;37.402;2022-11-20T01:34:11;99515.19;;;-1.36;81.00
61109;BME280;46995;55.740;37.402;2022-11-20T01:36:38;99526.72;;;-1.21;81.34
61109;BME280;46995;55.740;37.402;2022-11-20T01:39:07;99514.19;;;-1.32;80.78
61109;BME280;46995;55.740;37.402;2022-11-20T01:41:35;99532.84;;;-1.24;80.48
61109;BME280;46995;55.740;37.402;2022-11-20T01:44:21;99541.41;;;-1.22;80.29
61109;BME280;46995;55.740;37.402;2022-11-20T01:47:02;99539.00;;;-1.26;80.08
61109;BME280;46995;55.740;37.402;2022-11-20T01:52:05;99538.38;;;-1.33;79.82
61109;BME280;46995;55.740;37.402;2022-11-20T01:54:43;99525.84;;;-1.44;79.95
61109;BME280;46995;55.740;37.402;2022-11-20T01:57:12;99553.78;;;-1.30;79.79
61109;BME280;46995;55.740;37.402;2022-11-20T01:59:44;99533.44;;;-1.39;80.18
61109;BME280;46995;55.740;37.402;2022-11-20T02:02:18;99565.75;;;-1.26;79.55
61109;BME280;46995;55.740;37.402;2022-11-20T02:04:44;99559.91;;;-1.31;79.63
61109;BME280;46995;55.740;37.402;2022-11-20T02:07:10;99562.50;;;-1.31;79.42
61109;BME280;46995;55.740;37.402;2022-11-20T02:09:37;99560.91;;;-1.35;79.82
61109;BME280;46995;55.740;37.402;2022-11-20T02:12:03;99566.06;;;-1.35;79.71
61109;BME280;46995;55.740;37.402;2022-11-20T02:14:29;99560.13;;;-1.37;79.26
61109;BME280;46995;55.740;37.402;2022-11-20T02:16:55;99564.50;;;-1.39;79.34
61109;BME280;46995;55.740;37.402;2022-11-20T02:19:28;99577.28;;;-1.35;79.38
61109;BME280;46995;55.740;37.402;2022-11-20T02:24:22;99568.22;;;-1.46;79.07
61109;BME280;46995;55.740;37.402;2022-11-20T02:29:59;99592.72;;;-1.32;78.98
61109;BME280;46995;55.740;37.402;2022-11-20T02:32:36;99586.75;;;-1.34;79.02
61109;BME280;46995;55.740;37.402;2022-11-20T02:37:43;99598.84;;;-1.34;79.12
61109;BME280;46995;55.740;37.402;2022-11-20T02:40:10;99581.97;;;-1.44;79.05
61109;BME280;46995;55.740;37.402;2022-11-20T02:42:38;99581.97;;;-1.44;79.31
61109;BME280;46995;55.740;37.402;2022-11-20T02:45:04;99572.63;;;-1.48;78.91
61109;BME280;46995;55.740;37.402;2022-11-20T02:47:31;99595.53;;;-1.38;78.85
61109;BME280;46995;55.740;37.402;2022-11-20T02:49:56;99574.50;;;-1.52;79.09
61109;BME280;46995;55.740;37.402;2022-11-20T02:52:23;99582.09;;;-1.47;78.69
61109;BME280;46995;55.740;37.402;2022-11-20T02:54:49;99579.66;;;-1.52;78.89
61109;BME280;46995;55.740;37.402;2022-11-20T02:57:14;99593.16;;;-1.44;79.09
61109;BME280;46995;55.740;37.402;2022-11-20T02:59:40;99589.78;;;-1.46;78.96
61109;BME280;46995;55.740;37.402;2022-11-20T03:02:06;99599.97;;;-1.41;78.46
61109;BME280;46995;55.740;37.402;2022-11-20T03:04:31;99578.91;;;-1.55;78.97
61109;BME280;46995;55.740;37.402;2022-11-20T03:06:57;99587.38;;;-1.50;78.69
61109;BME280;46995;55.740;37.402;2022-11-20T03:09:23;99602.56;;;-1.41;78.49
61109;BME280;46995;55.740;37.402;2022-11-20T03:11:56;99605.09;;;-1.40;79.21
61109;BME280;46995;55.740;37.402;2022-11-20T03:14:22;99597.38;;;-1.41;78.71
61109;BME280;46995;55.740;37.402;2022-11-20T03:16:48;99605.16;;;-1.41;78.81
61109;BME280;46995;55.740;37.402;2022-11-20T03:19:13;99595.81;;;-1.45;78.81
61109;BME280;46995;55.740;37.402;2022-11-20T03:21:39;99596.69;;;-1.46;78.68
61109;BME280;46995;55.740;37.402;2022-11-20T03:24:05;99599.06;;;-1.40;78.39
61109;BME280;46995;55.740;37.402;2022-11-20T03:26:31;99594.75;;;-1.40;78.72
61109;BME280;46995;55.740;37.402;2022-11-20T03:28:59;99594.13;;;-1.46;78.69
61109;BME280;46995;55.740;37.402;2022-11-20T03:31:36;99605.94;;;-1.39;78.61
61109;BME280;46995;55.740;37.402;2022-11-20T03:34:03;99607.88;;;-1.44;78.71
61109;BME280;46995;55.740;37.402;2022-11-20T03:36:30;99608.59;;;-1.41;78.73
61109;BME280;46995;55.740;37.402;2022-11-20T03:38:56;99608.53;;;-1.39;78.37
61109;BME280;46995;55.740;37.402;2022-11-20T03:41:24;99620.56;;;-1.37;78.57
61109;BME280;46995;55.740;37.402;2022-11-20T03:43:51;99614.63;;;-1.40;78.29
61109;BME280;46995;55.740;37.402;2022-11-20T03:46:18;99588.22;;;-1.50;78.59
61109;BME280;46995;55.740;37.402;2022-11-20T03:48:44;99605.28;;;-1.44;78.46
61109;BME280;46995;55.740;37.402;2022-11-20T03:51:15;99607.22;;;-1.51;78.24
61109;BME280;46995;55.740;37.402;2022-11-20T03:53:43;99599.63;;;-1.55;78.63
61109;BME280;46995;55.740;37.402;2022-11-20T03:56:10;99618.91;;;-1.39;78.90
61109;BME280;46995;55.740;37.402;2022-11-20T03:58:37;99639.63;;;-1.39;78.51
61109;BME280;46995;55.740;37.402;2022-11-20T04:01:20;99631.03;;;-1.41;78.45
61109;BME280;46995;55.740;37.402;2022-11-20T04:03:47;99624.41;;;-1.48;77.99
61109;BME280;46995;55.740;37.402;2022-11-20T04:06:16;99632.03;;;-1.44;78.62
61109;BME280;46995;55.740;37.402;2022-11-20T04:08:42;99638.81;;;-1.41;78.38
61109;BME280;46995;55.740;37.402;2022-11-20T04:13:41;99628.78;;;-1.50;78.18
61109;BME280;46995;55.740;37.402;2022-11-20T04:16:08;99635.53;;;-1.46;78.36
61109;BME280;46995;55.740;37.402;2022-11-20T04:18:34;99645.81;;;-1.43;77.90
61109;BME280;46995;55.740;37.402;2022-11-20T04:21:01;99647.72;;;-1.48;78.25
61109;BME280;46995;55.740;37.402;2022-11-20T04:23:27;99642.63;;;-1.51;78.30
61109;BME280;46995;55.740;37.402;2022-11-20T04:25:53;99663.81;;;-1.40;78.14
61109;BME280;46995;55.740;37.402;2022-11-20T04:28:19;99665.72;;;-1.45;78.27
61109;BME280;46995;55.740;37.402;2022-11-20T04:30:45;99672.47;;;-1.41;77.90
61109;BME280;46995;55.740;37.402;2022-11-20T04:33:11;99665.63;;;-1.42;77.80
61109;BME280;46995;55.740;37.402;2022-11-20T04:35:37;99663.13;;;-1.45;78.03
61109;BME280;46995;55.740;37.402;2022-11-20T04:38:03;99656.38;;;-1.49;77.72
61109;BME280;46995;55.740;37.402;2022-11-20T04:40:29;99673.19;;;-1.36;77.94
61109;BME280;46995;55.740;37.402;2022-11-20T04:42:55;99667.44;;;-1.44;77.50
61109;BME280;46995;55.740;37.402;2022-11-20T04:45:22;99684.31;;;-1.34;77.96
61109;BME280;46995;55.740;37.402;2022-11-20T04:47:48;99678.25;;;-1.33;77.34
61109;BME280;46995;55.740;37.402;2022-11-20T04:50:14;99689.63;;;-1.37;78.01
61109;BME280;46995;55.740;37.402;2022-11-20T04:52:40;99673.66;;;-1.50;78.29
61109;BME280;46995;55.740;37.402;2022-11-20T04:55:06;99686.41;;;-1.44;78.22
61109;BME280;46995;55.740;37.402;2022-11-20T04:57:32;99665.94;;;-1.51;78.07
61109;BME280;46995;55.740;37.402;2022-11-20T04:59:58;99699.88;;;-1.34;77.92
61109;BME280;46995;55.740;37.402;2022-11-20T05:02:23;99702.47;;;-1.34;78.12
61109;BME280;46995;55.740;37.402;2022-11-20T05:04:49;99697.41;;;-1.37;78.17
61109;BME280;46995;55.740;37.402;2022-11-20T05:07:15;99707.66;;;-1.34;77.84
61109;BME280;46995;55.740;37.402;2022-11-20T05:09:41;99690.84;;;-1.47;78.24
61109;BME280;46995;55.740;37.402;2022-11-20T05:12:07;99716.44;;;-1.38;78.36
61109;BME280;46995;55.740;37.402;2022-11-20T05:14:34;99709.66;;;-1.42;78.08
61109;BME280;46995;55.740;37.402;2022-11-20T05:16:59;99718.91;;;-1.35;78.32
61109;BME280;46995;55.740;37.402;2022-11-20T05:19:25;99716.44;;;-1.38;78.66
61109;BME280;46995;55.740;37.402;2022-11-20T05:21:51;99718.34;;;-1.43;77.95
61109;BME280;46995;55.740;37.402;2022-11-20T05:24:17;99675.00;;;-1.63;78.14
61109;BME280;46995;55.740;37.402;2022-11-20T05:26:43;99678.31;;;-1.59;78.28
61109;BME280;46995;55.740;37.402;2022-11-20T05:29:10;99690.06;;;-1.49;78.20
61109;BME280;46995;55.740;37.402;2022-11-20T05:31:39;99706.09;;;-1.40;78.53
61109;BME280;46995;55.740;37.402;2022-11-20T05:34:05;99719.81;;;-1.36;78.13
61109;BME280;46995;55.740;37.402;2022-11-20T05:36:31;99737.03;;;-1.35;78.50
61109;BME280;46995;55.740;37.402;2022-11-20T05:38:56;99719.91;;;-1.39;78.30
61109;BME280;46995;55.740;37.402;2022-11-20T05:41:23;99720.63;;;-1.36;78.18
61109;BME280;46995;55.740;37.402;2022-11-20T05:43:49;99741.78;;;-1.23;78.20
61109;BME280;46995;55.740;37.402;2022-11-20T05:46:17;99742.72;;;-1.25;78.61
61109;BME280;46995;55.740;37.402;2022-11-20T05:48:44;99729.34;;;-1.37;78.51
61109;BME280;46995;55.740;37.402;2022-11-20T05:51:13;99741.78;;;-1.23;78.43
61109;BME280;46995;55.740;37.402;2022-11-20T05:53:40;99730.91;;;-1.33;78.31
61109;BME280;46995;55.740;37.402;2022-11-20T05:56:08;99764.09;;;-1.19;78.13
61109;BME280;46995;55.740;37.402;2022-11-20T05:58:36;99743.81;;;-1.31;78.43
61109;BME280;46995;55.740;37.402;2022-11-20T06:01:05;99776.03;;;-1.15;78.17
61109;BME280;46995;55.740;37.402;2022-11-20T06:03:31;99768.44;;;-1.19;78.38
61109;BME280;46995;55.740;37.402;2022-11-20T06:06:00;99781.34;;;-1.18;78.05
61109;BME280;46995;55.740;37.402;2022-11-20T06:08:28;99773.78;;;-1.24;77.64
61109;BME280;46995;55.740;37.402;2022-11-20T06:10:54;99777.38;;;-1.28;78.21
61109;BME280;46995;55.740;37.402;2022-11-20T06:13:20;99761.16;;;-1.33;78.26
61109;BME280;46995;55.740;37.402;2022-11-20T06:15:52;99781.59;;;-1.25;78.08
61109;BME280;46995;55.740;37.402;2022-11-20T06:18:18;99792.06;;;-1.29;77.35
61109;BME280;46995;55.740;37.402;2022-11-20T06:20:44;99776.00;;;-1.38;77.38
61109;BME280;46995;55.740;37.402;2022-11-20T06:23:11;99797.41;;;-1.33;77.91
61109;BME280;46995;55.740;37.402;2022-11-20T06:25:41;99788.84;;;-1.35;77.54
61109;BME280;46995;55.740;37.402;2022-11-20T06:28:08;99799.88;;;-1.30;77.65
61109;BME280;46995;55.740;37.402;2022-11-20T06:30:34;99800.69;;;-1.28;77.22
61109;BME280;46995;55.740;37.402;2022-11-20T06:33:00;99812.31;;;-1.15;76.77
61109;BME280;46995;55.740;37.402;2022-11-20T06:35:27;99801.19;;;-1.17;76.75
61109;BME280;46995;55.740;37.402;2022-11-20T06:37:55;99810.31;;;-1.07;76.38
61109;BME280;46995;55.740;37.402;2022-11-20T06:40:20;99806.72;;;-1.03;76.53
61109;BME280;46995;55.740;37.402;2022-11-20T06:42:46;99806.00;;;-1.06;76.43
61109;BME280;46995;55.740;37.402;2022-11-20T06:45:12;99783.03;;;-1.17;76.51
61109;BME280;46995;55.740;37.402;2022-11-20T06:47:37;99805.94;;;-1.05;76.63
61109;BME280;46995;55.740;37.402;2022-11-20T06:50:06;99804.81;;;-0.98;77.58
61109;BME280;46995;55.740;37.402;2022-11-20T06:52:32;99787.81;;;-1.05;76.97
61109;BME280;46995;55.740;37.402;2022-11-20T06:54:58;99803.50;;;-0.84;78.24
61109;BME280;46995;55.740;37.402;2022-11-20T06:57:24;99781.22;;;-0.90;78.50
61109;BME280;46995;55.740;37.402;2022-11-20T06:59:50;99770.69;;;-0.86;77.53
61109;BME280;46995;55.740;37.402;2022-11-20T07:02:16;99790.84;;;-0.69;77.66
61109;BME280;46995;55.740;37.402;2022-11-20T07:04:41;99773.75;;;-0.74;77.83
61109;BME280;46995;55.740;37.402;2022-11-20T07:07:08;99782.25;;;-0.71;78.11
61109;BME280;46995;55.740;37.402;2022-11-20T07:09:34;99798.53;;;-0.67;77.94
61109;BME280;46995;55.740;37.402;2022-11-20T07:11:59;99806.78;;;-0.56;78.05
61109;BME280;46995;55.740;37.402;2022-11-20T07:14:25;99804.97;;;-0.54;78.04
61109;BME280;46995;55.740;37.402;2022-11-20T07:16:51;99804.09;;;-0.53;77.59
61109;BME280;46995;55.740;37.402;2022-11-20T07:19:17;99794.56;;;-0.53;77.28
61109;BME280;46995;55.740;37.402;2022-11-20T07:21:42;99794.59;;;-0.54;76.31
61109;BME280;46995;55.740;37.402;2022-11-20T07:24:08;99802.59;;;-0.60;75.76
61109;BME280;46995;55.740;37.402;2022-11-20T07:26:36;99806.59;;;-0.75;76.59
61109;BME280;46995;55.740;37.402;2022-11-20T07:29:02;99802.28;;;-0.74;77.13
61109;BME280;46995;55.740;37.402;2022-11-20T07:31:28;99802.19;;;-0.73;77.14
61109;BME280;46995;55.740;37.402;2022-11-20T07:33:54;99809.88;;;-0.70;77.44
61109;BME280;46995;55.740;37.402;2022-11-20T07:36:20;99808.81;;;-0.64;77.63
61109;BME280;46995;55.740;37.402;2022-11-20T07:38:45;99819.69;;;-0.55;76.73
61109;BME280;46995;55.740;37.402;2022-11-20T07:41:11;99819.66;;;-0.53;78.31
61109;BME280;46995;55.740;37.402;2022-11-20T07:43:37;99819.69;;;-0.55;77.11
61109;BME280;46995;55.740;37.402;2022-11-20T07:46:03;99800.69;;;-0.55;77.29
61109;BME280;46995;55.740;37.402;2022-11-20T07:48:29;99801.09;;;-0.43;77.36
61109;BME280;46995;55.740;37.402;2022-11-20T07:50:56;99810.28;;;-0.34;77.60
61109;BME280;46995;55.740;37.402;2022-11-20T07:53:22;99822.03;;;-0.25;77.69
61109;BME280;46995;55.740;37.402;2022-11-20T07:55:49;99818.00;;;-0.32;77.24
61109;BME280;46995;55.740;37.402;2022-11-20T07:58:18;99816.00;;;-0.26;76.53
61109;BME280;46995;55.740;37.402;2022-11-20T08:00:45;99821.41;;;-0.09;76.95
61109;BME280;46995;55.740;37.402;2022-11-20T08:03:11;99827.31;;;-0.05;76.56
61109;BME280;46995;55.740;37.402;2022-11-20T08:05:37;99824.63;;;-0.02;77.55
61109;BME280;46995;55.740;37.402;2022-11-20T08:08:03;99804.66;;;0.00;76.49
61109;BME280;46995;55.740;37.402;2022-11-20T08:10:29;99814.97;;;0.02;75.67
61109;BME280;46995;55.740;37.402;2022-11-20T08:12:55;99826.03;;;0.07;75.71
61109;BME280;46995;55.740;37.402;2022-11-20T08:15:40;99808.34;;;-0.06;76.29
61109;BME280;46995;55.740;37.402;2022-11-20T08:18:10;99820.25;;;0.00;75.94
61109;BME280;46995;55.740;37.402;2022-11-20T08:20:38;99837.28;;;0.06;75.17
61109;BME280;46995;55.740;37.402;2022-11-20T08:23:06;99826.44;;;-0.04;75.44
61109;BME280;46995;55.740;37.402;2022-11-20T08:25:34;99831.34;;;0.04;75.10
61109;BME280;46995;55.740;37.402;2022-11-20T08:28:03;99825.47;;;-0.02;74.41
61109;BME280;46995;55.740;37.402;2022-11-20T08:30:29;99839.34;;;-0.03;74.58
61109;BME280;46995;55.740;37.402;2022-11-20T08:33:03;99859.75;;;0.07;74.57
61109;BME280;46995;55.740;37.402;2022-11-20T08:35:32;99857.97;;;0.09;74.23
61109;BME280;46995;55.740;37.402;2022-11-20T08:37:58;99843.41;;;0.05;74.46
61109;BME280;46995;55.740;37.402;2022-11-20T08:40:24;99846.91;;;0.04;74.12
61109;BME280;46995;55.740;37.402;2022-11-20T08:42:50;99834.16;;;-0.03;74.01
61109;BME280;46995;55.740;37.402;2022-11-20T08:45:18;99859.53;;;0.13;74.07
61109;BME280;46995;55.740;37.402;2022-11-20T08:47:44;99853.63;;;0.09;73.81
61109;BME280;46995;55.740;37.402;2022-11-20T08:50:14;99854.94;;;-0.03;73.82
61109;BME280;46995;55.740;37.402;2022-11-20T08:52:43;99820.97;;;-0.20;74.49
61109;BME280;46995;55.740;37.402;2022-11-20T08:55:09;99876.91;;;0.11;74.09
61109;BME280;46995;55.740;37.402;2022-11-20T08:57:36;99888.09;;;0.13;73.79
61109;BME280;46995;55.740;37.402;2022-11-20T09:00:07;99865.09;;;0.04;73.60
61109;BME280;46995;55.740;37.402;2022-11-20T09:02:35;99885.84;;;0.04;73.98
61109;BME280;46995;55.740;37.402;2022-11-20T09:05:04;99882.69;;;-0.05;74.10
61109;BME280;46995;55.740;37.402;2022-11-20T09:07:30;99875.38;;;-0.17;74.57
61109;BME280;46995;55.740;37.402;2022-11-20T09:09:55;99900.19;;;-0.10;74.65
61109;BME280;46995;55.740;37.402;2022-11-20T09:12:21;99916.56;;;-0.08;74.90
61109;BME280;46995;55.740;37.402;2022-11-20T09:14:47;99898.94;;;-0.23;75.08
61109;BME280;46995;55.740;37.402;2022-11-20T09:17:13;99918.53;;;-0.14;74.97
61109;BME280;46995;55.740;37.402;2022-11-20T09:19:40;99931.31;;;-0.10;75.13
61109;BME280;46995;55.740;37.402;2022-11-20T09:22:06;99927.06;;;-0.11;75.40
61109;BME280;46995;55.740;37.402;2022-11-20T09:24:32;99925.47;;;-0.15;75.32
61109;BME280;46995;55.740;37.402;2022-11-20T09:26:58;99948.94;;;-0.18;75.84
61109;BME280;46995;55.740;37.402;2022-11-20T09:29:23;99954.22;;;-0.21;75.94
61109;BME280;46995;55.740;37.402;2022-11-20T09:31:49;99955.31;;;-0.26;76.29
61109;BME280;46995;55.740;37.402;2022-11-20T09:34:15;99935.91;;;-0.41;76.35
61109;BME280;46995;55.740;37.402;2022-11-20T09:36:41;99962.25;;;-0.27;76.16
61109;BME280;46995;55.740;37.402;2022-11-20T09:39:07;99949.69;;;-0.39;76.51
61109;BME280;46995;55.740;37.402;2022-11-20T09:41:54;99961.66;;;-0.35;77.08
61109;BME280;46995;55.740;37.402;2022-11-20T09:55:24;99959.94;;;-0.36;77.60
61109;BME280;46995;55.740;37.402;2022-11-20T09:57:52;99943.53;;;-0.36;77.26
61109;BME280;46995;55.740;37.402;2022-11-20T10:00:18;99952.75;;;-0.28;76.85
61109;BME280;46995;55.740;37.402;2022-11-20T10:05:25;99968.69;;;-0.14;76.62
61109;BME280;46995;55.740;37.402;2022-11-20T10:08:15;99975.66;;;-0.16;76.37
61109;BME280;46995;55.740;37.402;2022-11-20T10:10:45;99972.84;;;-0.33;76.61
61109;BME280;46995;55.740;37.402;2022-11-20T10:13:45;99982.03;;;-0.24;77.04
61109;BME280;46995;55.740;37.402;2022-11-20T10:30:01;99975.75;;;-0.42;77.29
61109;BME280;46995;55.740;37.402;2022-11-20T10:32:37;99982.81;;;-0.47;77.65
61109;BME280;46995;55.740;37.402;2022-11-20T10:35:14;99984.72;;;-0.52;78.02
61109;BME280;46995;55.740;37.402;2022-11-20T10:37:44;99986.53;;;-0.54;78.28
61109;BME280;46995;55.740;37.402;2022-11-20T10:40:38;99966.53;;;-0.51;78.48
61109;BME280;46995;55.740;37.402;2022-11-20T10:43:13;99979.25;;;-0.43;77.94
61109;BME280;46995;55.740;37.402;2022-11-20T10:48:23;99999.84;;;-0.38;77.88
61109;BME280;46995;55.740;37.402;2022-11-20T10:53:55;100004.88;;;-0.34;77.42
61109;BME280;46995;55.740;37.402;2022-11-20T11:01:55;100008.88;;;-0.50;77.19
61109;BME280;46995;55.740;37.402;2022-11-20T11:04:43;100003.50;;;-0.44;76.99
61109;BME280;46995;55.740;37.402;2022-11-20T11:09:50;100019.06;;;-0.44;77.03
61109;BME280;46995;55.740;37.402;2022-11-20T11:12:18;100015.75;;;-0.49;76.24
61109;BME280;46995;55.740;37.402;2022-11-20T11:14:45;100025.50;;;-0.56;76.28
61109;BME280;46995;55.740;37.402;2022-11-20T11:17:30;100023.06;;;-0.60;76.47
61109;BME280;46995;55.740;37.402;2022-11-20T11:22:47;100013.19;;;-0.75;75.93
61109;BME280;46995;55.740;37.402;2022-11-20T11:25:39;100030.94;;;-0.63;75.78
61109;BME280;46995;55.740;37.402;2022-11-20T11:28:20;100029.56;;;-0.73;75.40
61109;BME280;46995;55.740;37.402;2022-11-20T11:30:46;100011.78;;;-0.86;75.93
61109;BME280;46995;55.740;37.402;2022-11-20T11:33:23;100030.25;;;-0.68;75.84
61109;BME280;46995;55.740;37.402;2022-11-20T11:35:51;100023.28;;;-0.68;75.28
61109;BME280;46995;55.740;37.402;2022-11-20T11:38:30;100023.22;;;-0.65;75.26
61109;BME280;46995;55.740;37.402;2022-11-20T11:40:58;100010.59;;;-0.75;75.08
61109;BME280;46995;55.740;37.402;2022-11-20T11:43:28;99998.72;;;-0.82;74.92
61109;BME280;46995;55.740;37.402;2022-11-20T11:46:33;100014.00;;;-0.73;75.17
61109;BME280;46995;55.740;37.402;2022-11-20T11:52:01;100018.25;;;-0.72;74.17
61109;BME280;46995;55.740;37.402;2022-11-20T11:57:12;100022.03;;;-0.82;74.49
61109;BME280;46995;55.740;37.402;2022-11-20T12:05:27;100027.03;;;-0.76;74.42
61109;BME280;46995;55.740;37.402;2022-11-20T12:13:42;100044.34;;;-0.51;73.64
61109;BME280;46995;55.740;37.402;2022-11-20T12:16:14;100027.44;;;-0.62;73.24
61109;BME280;46995;55.740;37.402;2022-11-20T12:18:41;100047.09;;;-0.55;73.73
61109;BME280;46995;55.740;37.402;2022-11-20T12:21:18;100019.22;;;-0.75;73.29
61109;BME280;46995;55.740;37.402;2022-11-20T12:38:06;100038.75;;;-0.91;74.27
61109;BME280;46995;55.740;37.402;2022-11-20T12:43:21;100035.13;;;-0.86;74.24
61109;BME280;46995;55.740;37.402;2022-11-20T12:46:39;100035.00;;;-0.82;74.49
61109;BME280;46995;55.740;37.402;2022-11-20T12:52:34;100046.00;;;-0.74;73.73
61109;BME280;46995;55.740;37.402;2022-11-20T12:55:09;100030.53;;;-0.77;73.51
61109;BME280;46995;55.740;37.402;2022-11-20T12:57:55;100049.28;;;-0.69;73.85
61109;BME280;46995;55.740;37.402;2022-11-20T13:00:23;100052.88;;;-0.73;73.90
61109;BME280;46995;55.740;37.402;2022-11-20T13:08:53;100054.66;;;-0.75;73.77
61109;BME280;46995;55.740;37.402;2022-11-20T13:17:24;100072.13;;;-0.80;73.12
61109;BME280;46995;55.740;37.402;2022-11-20T13:19:57;100038.28;;;-1.04;73.10
61109;BME280;46995;55.740;37.402;2022-11-20T13:28:01;100068.53;;;-1.04;73.78
61109;BME280;46995;55.740;37.402;2022-11-20T13:30:30;100063.47;;;-1.09;73.77
61109;BME280;46995;55.740;37.402;2022-11-20T13:33:23;100058.38;;;-1.10;73.54
61109;BME280;46995;55.740;37.402;2022-11-20T13:36:21;100056.09;;;-1.21;73.67
61109;BME280;46995;55.740;37.402;2022-11-20T13:38:52;100091.91;;;-1.06;73.79
61109;BME280;46995;55.740;37.402;2022-11-20T13:41:53;100094.44;;;-1.04;73.90
61109;BME280;46995;55.740;37.402;2022-11-20T13:44:39;100090.06;;;-1.02;73.77
61109;BME280;46995;55.740;37.402;2022-11-20T13:47:25;100081.78;;;-1.15;73.47
61109;BME280;46995;55.740;37.402;2022-11-20T13:49:57;100085.38;;;-1.19;73.64
61109;BME280;46995;55.740;37.402;2022-11-20T13:55:18;100099.16;;;-1.17;74.04
61109;BME280;46995;55.740;37.402;2022-11-20T14:00:25;100093.88;;;-1.14;73.49
61109;BME280;46995;55.740;37.402;2022-11-20T14:05:37;100098.69;;;-1.02;73.96
61109;BME280;46995;55.740;37.402;2022-11-20T14:08:06;100090.06;;;-1.02;74.21
61109;BME280;46995;55.740;37.402;2022-11-20T14:10:36;100078.06;;;-1.05;73.63
61109;BME280;46995;55.740;37.402;2022-11-20T14:13:17;100092.66;;;-1.02;73.24
61109;BME280;46995;55.740;37.402;2022-11-20T14:15:43;100084.38;;;-1.15;73.98
61109;BME280;46995;55.740;37.402;2022-11-20T14:18:21;100098.97;;;-1.11;74.13
61109;BME280;46995;55.740;37.402;2022-11-20T14:20:51;100113.81;;;-1.16;73.77
61109;BME280;46995;55.740;37.402;2022-11-20T14:23:27;100112.88;;;-1.15;74.13
61109;BME280;46995;55.740;37.402;2022-11-20T14:25:53;100122.16;;;-1.06;73.80
61109;BME280;46995;55.740;37.402;2022-11-20T14:28:30;100133.28;;;-1.03;73.26
61109;BME280;46995;55.740;37.402;2022-11-20T14:30:56;100124.78;;;-1.08;73.54
61109;BME280;46995;55.740;37.402;2022-11-20T14:33:23;100114.97;;;-1.26;73.99
61109;BME280;46995;55.740;37.402;2022-11-20T14:35:55;100119.03;;;-1.17;74.32
61109;BME280;46995;55.740;37.402;2022-11-20T14:38:25;100116.66;;;-1.25;73.59
61109;BME280;46995;55.740;37.402;2022-11-20T14:40:52;100131.41;;;-1.27;74.16
61109;BME280;46995;55.740;37.402;2022-11-20T14:43:27;100138.19;;;-1.23;74.03
61109;BME280;46995;55.740;37.402;2022-11-20T14:45:58;100150.22;;;-1.20;74.14
61109;BME280;46995;55.740;37.402;2022-11-20T14:48:51;100138.91;;;-1.18;73.77
61109;BME280;46995;55.740;37.402;2022-11-20T14:51:31;100143.81;;;-1.09;73.81
61109;BME280;46995;55.740;37.402;2022-11-20T14:54:18;100121.75;;;-1.22;73.86
61109;BME280;46995;55.740;37.402;2022-11-20T14:56:55;100133.41;;;-1.07;73.58
61109;BME280;46995;55.740;37.402;2022-11-20T14:59:29;100126.66;;;-1.13;73.52
61109;BME280;46995;55.740;37.402;2022-11-20T15:02:08;100114.06;;;-1.25;73.41